createdAt,value
2018-07-26T00:02:57.258Z,98949.06
2018-07-26T00:05:59.578Z,98948.70
2018-07-26T00:09:01.889Z,98955.99
2018-07-26T00:12:04.477Z,98957.78
2018-07-26T00:15:08.342Z,98954.03
2018-07-26T00:18:10.680Z,98958.83
2018-07-26T00:21:13.076Z,98960.44
2018-07-26T00:24:15.470Z,98959.40
2018-07-26T00:27:17.877Z,98961.02
2018-07-26T00:30:20.439Z,98967.08
2018-07-26T00:33:22.804Z,98959.40
2018-07-26T00:36:25.266Z,98966.80
2018-07-26T00:39:27.643Z,98961.94
2018-07-26T00:42:30.136Z,98956.63
2018-07-26T00:45:32.636Z,98966.22
2018-07-26T00:48:35.014Z,98957.09
2018-07-26T00:51:37.481Z,98945.90
2018-07-26T00:54:39.905Z,98960.67
2018-07-26T00:57:42.307Z,98961.92
2018-07-26T01:00:44.771Z,98968.72
2018-07-26T01:03:47.090Z,98970.25
2018-07-26T01:06:49.658Z,98971.56
2018-07-26T01:09:52.156Z,98968.42
2018-07-26T01:12:54.581Z,98970.44
2018-07-26T01:15:57.003Z,98968.98
2018-07-26T01:18:59.565Z,98967.59
2018-07-26T01:22:02.166Z,98968.42
2018-07-26T01:25:04.597Z,98972.99
2018-07-26T01:28:07.086Z,98970.38
2018-07-26T01:31:09.641Z,98972.81
2018-07-26T01:34:12.101Z,98974.80
2018-07-26T01:37:14.653Z,98976.77
2018-07-26T01:40:17.030Z,98980.66
2018-07-26T01:43:56.673Z,98979.19
2018-07-26T01:46:59.030Z,98979.63
2018-07-26T01:50:02.304Z,98981.08
2018-07-26T01:53:04.707Z,98977.11
2018-07-26T01:56:08.451Z,98975.78
2018-07-26T01:59:10.726Z,98972.39
2018-07-26T02:02:13.018Z,98969.58
2018-07-26T02:05:15.483Z,98974.59
2018-07-26T02:08:17.893Z,98968.28
2018-07-26T02:11:20.393Z,98962.03
2018-07-26T02:14:28.391Z,98964.18
2018-07-26T02:17:30.882Z,98966.25
2018-07-26T02:20:33.234Z,98969.48
2018-07-26T02:23:35.658Z,98964.32
2018-07-26T02:26:38.135Z,98960.33
2018-07-26T02:29:40.586Z,98962.08
2018-07-26T02:32:43.044Z,98963.47
2018-07-26T02:35:45.443Z,98961.86
2018-07-26T02:38:47.897Z,98964.44
2018-07-26T02:41:51.264Z,98961.65
2018-07-26T02:44:53.859Z,98971.34
2018-07-26T02:47:56.236Z,98963.39
2018-07-26T02:50:58.694Z,98963.53
2018-07-26T02:54:01.252Z,98962.64
2018-07-26T02:57:03.667Z,98966.09
2018-07-26T03:00:07.047Z,98971.53
2018-07-26T03:03:10.978Z,98976.83
2018-07-26T03:06:13.658Z,98968.81
2018-07-26T03:09:16.098Z,98964.92
2018-07-26T03:12:18.530Z,98970.67
2018-07-26T03:15:21.000Z,98966.33
2018-07-26T03:18:23.555Z,98968.84
2018-07-26T03:21:25.926Z,98973.10
2018-07-26T03:24:28.250Z,98978.92
2018-07-26T03:27:30.648Z,98976.34
2018-07-26T03:30:33.812Z,98978.63
2018-07-26T03:33:36.377Z,98987.02
2018-07-26T03:36:38.803Z,98985.69
2018-07-26T03:39:41.190Z,98981.64
2018-07-26T03:42:43.573Z,98988.19
2018-07-26T03:45:45.966Z,98998.19
2018-07-26T03:48:48.372Z,98995.38
2018-07-26T03:51:50.863Z,98995.81
2018-07-26T03:54:53.185Z,98999.19
2018-07-26T03:57:55.797Z,98996.19
2018-07-26T04:00:58.543Z,99003.95
2018-07-26T04:04:00.922Z,99004.13
2018-07-26T04:07:03.370Z,99008.11
2018-07-26T04:10:05.773Z,98998.76
2018-07-26T04:13:08.232Z,99008.33
2018-07-26T04:16:10.838Z,99009.50
2018-07-26T04:19:13.299Z,99010.83
2018-07-26T04:22:15.757Z,99010.97
2018-07-26T04:25:18.088Z,99005.39
2018-07-26T04:28:20.541Z,99011.03
2018-07-26T04:31:23.025Z,99011.29
2018-07-26T04:34:25.611Z,99014.09
2018-07-26T04:37:28.134Z,99014.47
2018-07-26T04:40:30.427Z,99011.15
2018-07-26T04:43:32.833Z,99008.95
2018-07-26T04:46:35.300Z,98999.05
2018-07-26T04:49:37.782Z,99002.13
2018-07-26T04:52:40.356Z,98998.50
2018-07-26T04:55:42.618Z,98994.82
2018-07-26T04:58:45.099Z,99003.54
2018-07-26T05:01:47.578Z,98998.83
2018-07-26T05:04:49.966Z,99007.19
2018-07-26T05:07:52.517Z,99004.06
2018-07-26T05:10:54.942Z,99002.95
2018-07-26T05:13:57.388Z,98994.66
2018-07-26T05:16:59.777Z,98995.86
2018-07-26T05:20:02.269Z,98998.52
2018-07-26T05:23:04.809Z,98997.59
2018-07-26T05:26:07.342Z,98995.75
2018-07-26T05:29:15.983Z,98997.77
2018-07-26T05:32:18.534Z,98996.80
2018-07-26T05:35:21.002Z,99003.61
2018-07-26T05:38:23.643Z,98994.56
2018-07-26T05:41:26.063Z,99007.92
2018-07-26T05:44:28.538Z,99006.39
2018-07-26T05:47:30.962Z,99006.26
2018-07-26T05:50:33.394Z,99015.52
2018-07-26T05:53:35.803Z,99016.44
2018-07-26T05:56:38.236Z,99017.91
2018-07-26T05:59:40.590Z,99023.95
2018-07-26T06:02:43.707Z,99006.52
2018-07-26T06:05:46.539Z,99014.40
2018-07-26T06:08:49.096Z,99016.14
2018-07-26T06:11:51.418Z,98996.73
2018-07-26T06:14:53.880Z,98975.53
2018-07-26T06:17:56.383Z,98996.06
2018-07-26T06:21:02.192Z,98972.55
2018-07-26T06:24:05.038Z,99042.09
2018-07-26T06:27:07.805Z,99012.20
2018-07-26T06:30:12.034Z,99001.41
2018-07-26T06:33:14.435Z,98986.27
2018-07-26T06:36:16.842Z,99027.33
2018-07-26T06:39:19.440Z,99020.06
2018-07-26T06:42:21.944Z,98997.88
2018-07-26T06:45:24.435Z,99018.45
2018-07-26T06:48:26.910Z,99008.48
2018-07-26T06:51:29.225Z,99048.44
2018-07-26T06:54:31.800Z,99005.02
2018-07-26T06:57:34.238Z,99040.23
2018-07-26T07:00:36.540Z,99018.47
2018-07-26T07:03:39.011Z,98993.27
2018-07-26T07:06:41.574Z,98986.20
2018-07-26T07:09:44.159Z,98982.95
2018-07-26T07:12:47.674Z,98952.24
2018-07-26T07:15:50.148Z,98955.92
2018-07-26T07:18:52.658Z,99031.57
2018-07-26T07:21:55.053Z,99003.68
2018-07-26T07:24:57.622Z,99055.19
2018-07-26T07:28:00.092Z,99074.48
2018-07-26T07:31:02.598Z,99047.78
2018-07-26T07:34:05.410Z,99039.51
2018-07-26T07:37:07.866Z,99041.39
2018-07-26T07:40:10.311Z,99024.83
2018-07-26T07:43:12.816Z,99034.74
2018-07-26T07:46:15.260Z,99028.64
2018-07-26T07:49:17.670Z,99004.13
2018-07-26T07:52:20.123Z,98973.17
2018-07-26T07:55:22.567Z,98946.89
2018-07-26T07:58:25.169Z,98972.05
2018-07-26T08:01:27.649Z,98963.64
2018-07-26T08:04:30.112Z,98960.38
2018-07-26T08:07:32.353Z,98969.52
2018-07-26T08:10:34.823Z,99002.75
2018-07-26T08:13:37.436Z,99041.09
2018-07-26T08:16:39.971Z,99035.45
2018-07-26T08:19:42.432Z,99014.64
2018-07-26T08:22:44.812Z,99011.51
2018-07-26T08:25:47.140Z,99016.05
2018-07-26T08:28:49.517Z,99011.84
2018-07-26T08:31:51.906Z,99006.79
2018-07-26T08:34:54.266Z,98983.95
2018-07-26T08:37:56.669Z,99008.98
2018-07-26T08:40:58.895Z,99015.66
2018-07-26T08:44:01.319Z,99020.80
2018-07-26T08:47:03.589Z,99016.34
2018-07-26T08:50:06.102Z,99007.73
2018-07-26T08:53:08.579Z,98999.66
2018-07-26T08:56:10.936Z,99002.69
2018-07-26T08:59:14.278Z,99002.56
2018-07-26T09:02:16.583Z,98992.06
2018-07-26T09:05:19.087Z,98983.69
2018-07-26T09:08:21.398Z,98973.98
2018-07-26T09:11:23.888Z,98930.13
2018-07-26T09:14:26.367Z,98935.92
2018-07-26T09:17:28.731Z,98916.72
2018-07-26T09:20:31.226Z,98921.43
2018-07-26T09:23:33.706Z,98903.39
2018-07-26T09:26:36.413Z,98962.02
2018-07-26T09:29:38.960Z,98960.68
2018-07-26T09:32:41.679Z,98923.28
2018-07-26T09:35:44.223Z,98926.48
2018-07-26T09:38:46.555Z,98950.98
2018-07-26T09:41:48.971Z,98922.05
2018-07-26T09:44:51.434Z,98954.73
2018-07-26T09:47:53.856Z,98913.91
2018-07-26T09:50:56.238Z,98938.25
2018-07-26T09:53:58.714Z,98955.02
2018-07-26T09:57:01.131Z,98932.89
2018-07-26T10:00:04.389Z,98894.19
2018-07-26T10:03:06.888Z,98895.07
2018-07-26T10:06:09.382Z,98855.16
2018-07-26T10:09:12.273Z,98864.89
2018-07-26T10:12:14.689Z,98850.63
2018-07-26T10:15:17.087Z,98888.83
2018-07-26T10:18:19.527Z,98871.53
2018-07-26T10:21:21.979Z,98885.75
2018-07-26T10:24:24.253Z,98898.36
2018-07-26T10:27:26.774Z,98864.18
2018-07-26T10:30:29.127Z,98906.19
2018-07-26T10:33:31.533Z,98723.19
2018-07-26T10:36:34.103Z,98572.59
2018-07-26T10:39:36.490Z,98640.68
2018-07-26T10:42:38.883Z,98679.08
2018-07-26T10:45:41.319Z,98632.97
2018-07-26T10:48:43.656Z,98704.77
2018-07-26T10:51:46.137Z,98754.42
2018-07-26T10:54:48.527Z,98775.97
2018-07-26T10:57:50.786Z,98740.36
2018-07-26T11:00:53.262Z,98770.28
2018-07-26T11:03:55.727Z,98753.86
2018-07-26T11:06:58.148Z,98697.55
2018-07-26T11:10:00.554Z,98759.97
2018-07-26T11:13:03.059Z,98757.95
2018-07-26T11:16:05.462Z,98679.88
2018-07-26T11:19:08.007Z,98629.02
2018-07-26T11:22:10.429Z,98583.77
2018-07-26T11:25:12.815Z,98564.43
2018-07-26T11:28:15.158Z,98647.20
2018-07-26T11:31:17.418Z,98713.09
2018-07-26T11:34:19.752Z,98566.48
2018-07-26T11:37:22.143Z,98617.31
2018-07-26T11:40:24.667Z,98575.56
2018-07-26T11:43:26.996Z,98573.25
2018-07-26T11:46:29.336Z,98453.89
2018-07-26T11:49:31.707Z,98464.72
2018-07-26T11:52:34.182Z,98514.86
2018-07-26T11:55:36.598Z,98471.09
2018-07-26T11:58:38.980Z,98573.77
2018-07-26T12:01:41.331Z,98618.69
2018-07-26T12:04:43.599Z,98590.94
2018-07-26T12:07:45.885Z,98667.13
2018-07-26T12:10:48.376Z,98755.18
2018-07-26T12:13:50.804Z,98702.43
2018-07-26T12:16:53.217Z,98700.28
2018-07-26T12:19:55.666Z,98672.17
2018-07-26T12:22:58.066Z,98620.03
2018-07-26T12:26:00.441Z,98521.31
2018-07-26T12:29:02.928Z,98448.27
2018-07-26T12:32:05.868Z,98379.39
2018-07-26T12:35:08.182Z,98333.67
2018-07-26T12:38:10.761Z,98415.08
2018-07-26T12:41:13.092Z,98285.72
2018-07-26T12:44:15.503Z,98213.16
2018-07-26T12:47:17.832Z,98294.67
2018-07-26T12:50:51.162Z,98271.59
2018-07-26T12:53:53.546Z,98328.24
2018-07-26T12:56:55.915Z,98475.08
2018-07-26T12:59:58.220Z,98444.58
2018-07-26T13:03:00.690Z,98318.00
2018-07-26T13:06:03.232Z,98177.77
2018-07-26T13:09:07.273Z,98156.16
2018-07-26T13:12:09.977Z,98245.28
2018-07-26T13:15:12.355Z,98058.37
2018-07-26T13:18:14.787Z,97987.31
2018-07-26T13:21:17.142Z,97995.89
2018-07-26T13:24:19.436Z,97985.38
2018-07-26T13:27:21.873Z,98077.10
2018-07-26T13:30:24.373Z,98158.86
2018-07-26T13:33:26.755Z,98250.94
2018-07-26T13:36:29.152Z,98248.77
2018-07-26T13:39:31.708Z,98112.24
2018-07-26T13:42:34.116Z,98015.47
2018-07-26T13:45:36.543Z,98062.02
2018-07-26T13:48:38.830Z,98066.98
2018-07-26T13:51:41.252Z,97947.18
2018-07-26T13:56:43.802Z,97806.95
2018-07-26T13:59:46.466Z,97912.56
2018-07-26T14:02:48.847Z,97916.79
2018-07-26T14:05:51.224Z,97940.69
2018-07-26T14:08:53.431Z,97909.68
2018-07-26T14:11:55.905Z,97906.12
2018-07-26T14:14:58.288Z,97818.11
2018-07-26T14:18:00.691Z,98183.31
2018-07-26T14:21:03.123Z,98429.02
2018-07-26T14:24:11.187Z,98451.30
2018-07-26T14:37:42.023Z,98805.61
2018-07-26T14:40:44.579Z,99150.55
2018-07-26T14:43:47.169Z,99177.63
2018-07-26T14:46:49.576Z,99185.89
2018-07-26T14:49:52.057Z,99165.34
2018-07-26T14:52:54.322Z,99060.61
2018-07-26T14:55:56.640Z,98911.19
2018-07-26T14:58:59.434Z,98771.73
2018-07-26T15:02:01.874Z,98555.61
2018-07-26T15:05:04.363Z,98388.62
2018-07-26T15:08:07.800Z,98385.37
2018-07-26T15:11:10.288Z,98435.31
2018-07-26T15:14:12.916Z,98455.70
2018-07-26T15:17:15.407Z,98571.53
2018-07-26T15:20:17.785Z,98639.77
2018-07-26T15:23:20.327Z,98721.43
2018-07-26T15:26:22.789Z,98673.52
2018-07-26T15:29:25.236Z,98535.86
2018-07-26T15:32:27.511Z,98171.77
2018-07-26T15:35:30.025Z,98010.34
2018-07-26T15:38:32.443Z,97742.12
2018-07-26T15:41:35.001Z,97681.94
2018-07-26T15:44:38.538Z,97679.26
2018-07-26T15:47:40.870Z,97794.76
2018-07-26T15:50:43.438Z,97933.01
2018-07-26T15:53:45.994Z,98078.22
2018-07-26T15:56:48.413Z,98039.63
2018-07-26T15:59:50.916Z,98073.81
2018-07-26T16:02:53.782Z,98059.02
2018-07-26T16:05:57.263Z,98092.55
2018-07-26T16:09:03.541Z,98021.43
2018-07-26T16:12:06.159Z,97965.22
2018-07-26T16:15:10.051Z,97950.25
2018-07-26T16:18:12.414Z,97916.00
2018-07-26T16:21:14.791Z,97854.16
2018-07-26T16:24:17.288Z,97827.41
2018-07-26T16:27:19.726Z,97932.67
2018-07-26T16:30:22.218Z,98004.34
2018-07-26T16:33:24.702Z,98015.66
2018-07-26T16:36:27.215Z,98038.67
2018-07-26T16:39:29.760Z,97977.16
2018-07-26T16:42:32.285Z,97969.11
2018-07-26T16:45:34.811Z,97999.66
2018-07-26T16:48:37.316Z,98014.05
2018-07-26T16:51:39.734Z,98027.35
2018-07-26T16:54:42.377Z,97979.43
2018-07-26T16:57:44.827Z,98024.73
2018-07-26T17:00:47.295Z,98050.47
2018-07-26T17:03:50.773Z,98065.19
2018-07-26T17:06:53.146Z,98010.27
2018-07-26T17:09:55.556Z,97999.52
2018-07-26T17:12:59.177Z,97949.63
2018-07-26T17:16:01.634Z,97945.23
2018-07-26T17:19:04.942Z,98038.57
2018-07-26T17:23:17.081Z,98127.53
2018-07-26T17:27:49.457Z,98192.61
2018-07-26T17:30:51.874Z,98169.22
2018-07-26T17:33:54.617Z,98170.66
2018-07-26T17:36:57.681Z,98226.66
2018-07-26T17:40:00.214Z,98260.26
2018-07-26T17:43:02.595Z,98313.28
2018-07-26T17:46:05.054Z,98324.01
2018-07-26T17:49:07.397Z,98262.47
2018-07-26T17:52:09.758Z,98342.14
2018-07-26T17:55:12.401Z,98414.48
2018-07-26T17:58:14.830Z,98480.85
2018-07-26T18:01:17.344Z,98549.59
2018-07-26T18:04:19.847Z,98575.40
2018-07-26T18:07:23.174Z,98600.20
2018-07-26T18:10:25.589Z,98673.56
2018-07-26T18:13:28.021Z,98773.73
2018-07-26T18:16:30.308Z,98888.36
2018-07-26T18:19:32.744Z,99019.46
2018-07-26T18:22:35.247Z,99137.88
2018-07-26T18:25:37.721Z,99219.00
2018-07-26T18:28:40.259Z,99315.13
2018-07-26T18:31:42.862Z,99415.16
2018-07-26T18:34:45.090Z,99497.95
2018-07-26T18:37:47.441Z,99566.64
2018-07-26T18:40:49.818Z,99633.86
2018-07-26T18:43:52.275Z,99701.27
2018-07-26T18:46:54.633Z,99755.69
2018-07-26T18:49:57.074Z,99784.61
2018-07-26T18:52:59.610Z,99796.23
2018-07-26T18:56:02.026Z,99770.13
2018-07-26T18:59:05.006Z,99716.84
2018-07-26T19:02:07.482Z,99649.30
2018-07-26T19:05:10.060Z,99577.17
2018-07-26T19:08:12.600Z,99497.86
2018-07-26T19:11:15.026Z,99374.23
2018-07-26T19:14:17.643Z,99274.34
2018-07-26T19:17:20.297Z,99149.50
2018-07-26T19:20:23.722Z,99061.50
2018-07-26T19:23:26.149Z,98980.52
2018-07-26T19:26:28.586Z,98942.77
2018-07-26T19:29:30.932Z,98909.35
2018-07-26T19:32:33.306Z,98889.04
2018-07-26T19:35:35.665Z,98867.63
2018-07-26T19:38:38.102Z,98866.81
2018-07-26T19:41:41.100Z,98860.95
2018-07-26T19:44:43.511Z,98866.55
2018-07-26T19:47:45.959Z,98860.92
2018-07-26T19:50:48.246Z,98857.98
2018-07-26T19:53:50.619Z,98868.41
2018-07-26T19:56:52.986Z,98872.41
2018-07-26T19:59:55.330Z,98871.84
2018-07-26T20:02:57.656Z,98866.99
2018-07-26T20:06:00.040Z,98876.30
2018-07-26T20:09:02.546Z,98873.61
2018-07-26T20:12:05.210Z,98871.71
2018-07-26T20:15:07.886Z,98874.05
2018-07-26T20:18:10.285Z,98882.84
2018-07-26T20:21:12.689Z,98882.80
2018-07-26T20:24:15.201Z,98883.01
2018-07-26T20:27:17.598Z,98885.88
2018-07-26T20:30:20.036Z,98873.24
2018-07-26T20:33:22.302Z,98874.79
2018-07-26T20:36:25.823Z,98880.88
2018-07-26T20:39:28.105Z,98886.19
2018-07-26T20:42:30.624Z,98890.63
2018-07-26T20:45:33.148Z,98895.63
2018-07-26T20:48:35.704Z,98892.08
2018-07-26T20:51:38.268Z,98892.27
2018-07-26T20:54:40.863Z,98898.53
2018-07-26T20:57:43.172Z,98904.80
2018-07-26T21:00:45.515Z,98907.59
2018-07-26T21:03:47.790Z,98897.06
2018-07-26T21:06:51.108Z,98906.92
2018-07-26T21:09:53.751Z,98914.36
2018-07-26T21:12:56.331Z,98906.53
2018-07-26T21:15:58.763Z,98913.91
2018-07-26T21:20:04.314Z,98913.56
2018-07-26T21:23:06.772Z,98924.00
2018-07-26T21:26:09.228Z,98925.48
2018-07-26T21:29:11.631Z,98921.38
2018-07-26T21:32:14.127Z,98923.59
2018-07-26T21:35:16.625Z,98932.97
2018-07-26T21:38:19.045Z,98936.53
2018-07-26T21:41:21.495Z,98936.14
2018-07-26T21:44:23.915Z,98937.36
2018-07-26T21:47:26.654Z,98936.43
2018-07-26T21:50:29.314Z,98931.98
2018-07-26T21:54:02.714Z,98946.45
2018-07-26T21:57:05.126Z,98943.14
2018-07-26T22:00:09.087Z,98947.32
2018-07-26T22:03:11.584Z,98941.15
2018-07-26T22:06:14.159Z,98945.09
2018-07-26T22:09:16.453Z,98940.73
2018-07-26T22:12:19.091Z,98940.21
2018-07-26T22:15:21.434Z,98947.58
2018-07-26T22:18:23.842Z,98947.19
2018-07-26T22:21:26.279Z,98945.45
2018-07-26T22:24:28.692Z,98944.80
2018-07-26T22:27:31.162Z,98947.11
2018-07-26T22:30:33.546Z,98941.41
2018-07-26T22:33:35.944Z,98942.73
2018-07-26T22:36:38.322Z,98950.20
2018-07-26T22:39:50.464Z,98941.37
2018-07-26T22:42:55.260Z,98943.91
2018-07-26T22:45:59.494Z,98943.78
2018-07-26T22:49:01.885Z,98946.03
2018-07-26T22:52:04.377Z,98940.47
2018-07-26T22:55:07.067Z,98943.75
2018-07-26T22:58:09.547Z,98939.80
2018-07-26T23:01:12.104Z,98941.00
2018-07-26T23:04:14.583Z,98940.06
2018-07-26T23:07:17.036Z,98938.97
2018-07-26T23:10:19.489Z,98937.77
2018-07-26T23:13:21.923Z,98943.09
2018-07-26T23:16:24.432Z,98943.14
2018-07-26T23:19:26.820Z,98952.13
2018-07-26T23:22:29.265Z,98944.64
2018-07-26T23:25:31.829Z,98949.72
2018-07-26T23:28:34.285Z,98943.61
2018-07-26T23:31:36.611Z,98943.84
2018-07-26T23:34:38.998Z,98938.91
2018-07-26T23:37:41.398Z,98937.29
2018-07-26T23:40:43.813Z,98940.75
2018-07-26T23:43:46.244Z,98939.20
2018-07-26T23:46:48.649Z,98938.02
2018-07-26T23:49:51.111Z,98933.61
2018-07-26T23:52:53.438Z,98938.76
2018-07-26T23:55:56.063Z,98931.03
2018-07-26T23:58:58.427Z,98931.03
